MMTO/TLC METAR and TAF weather

Enter ICAO airport designator
Station Type Date Time Source
MMTO METAR 2019/04/18 09:46 UTC NOAA

MMTO 180946Z 32003KT 6SM FEW070 10/01 A3029 RMK 8/030 HZY


Station Type Date Time Source
MMTO Decoded METAR 2019/04/18 09:46 UTC NOAA

Toluca / Jose Maria , Mexico (MMTO) 19-21N 099-34W
Apr 18, 2019 - 05:46 AM EDT / 2019.04.18 0946 UTC
Wind: from the NW (320 degrees) at 3 MPH (3 KT):0
Visibility: 6 mile(s):0
Sky conditions: mostly clear
Temperature: 50 F (10 C)
Dew Point: 33 F (1 C)
Relative Humidity: 53%
Pressure (altimeter): 30.29 in. Hg (1025 hPa)
ob: MMTO 180946Z 32003KT 6SM FEW070 10/01 A3029 RMK 8/030 HZY
cycle: 10

Station Type Date Time Source
MMTO TAF 2019/04/18 06:57 UTC NOAA

TAF TAF MMTO 180454Z 1806/1912 33005KT 5SM HZ SCT080 TX26/1821Z TN06/1812Z
FM181600 26010KT P6SM SCT030
FM182200 30012KT P6SM SCT250
FM190300 03005KT 5SM HZ SCT015

Example: see airport list